Time;durP1;ratioP1;P1;durP2;ratioP2;P2;SDS_P1;SDS_P2;PMS_P1;PMS_P2;Temp;Humidity;BMP_temperature;BMP_pressure;BME280_temperature;BME280_humidity;BME280_pressure;Samples;Min_cycle;Max_cycle;Signal;HPM_P1;HPM_P2
2023/09/02 00:05:18;;;;;;;;;2.67;2.67;;;;;;;;4744576;29;45256;-94
2023/09/02 00:07:46;;;;;;;;;3.00;3.00;;;;;;;;4743485;29;45358;-95
2023/09/02 00:10:12;;;;;;;;;5.33;4.00;;;;;;;;4758925;29;45640;-94
2023/09/02 00:12:52;;;;;;;;;9.67;9.67;;;;;;;;4759071;29;45306;-94
2023/09/02 00:15:45;;;;;;;;;6.33;6.33;;;;;;;;4738371;30;45701;-94
2023/09/02 00:18:15;;;;;;;;;6.33;6.33;;;;;;;;4729726;29;45411;-94
2023/09/02 00:20:43;;;;;;;;;7.67;7.67;;;;;;;;4742330;29;47081;-94
2023/09/02 00:23:32;;;;;;;;;6.67;6.67;;;;;;;;4736145;29;47314;-94
2023/09/02 00:25:56;;;;;;;;;8.00;8.00;;;;;;;;4752671;29;45365;-94
2023/09/02 00:28:24;;;;;;;;;6.67;6.67;;;;;;;;4730759;29;45508;-94
2023/09/02 00:30:49;;;;;;;;;6.67;6.67;;;;;;;;4732662;29;47112;-94
2023/09/02 00:33:14;;;;;;;;;6.67;6.67;;;;;;;;4752516;29;46735;-93
2023/09/02 00:35:40;;;;;;;;;8.67;8.67;;;;;;;;4751585;29;45363;-93
2023/09/02 00:38:05;;;;;;;;;7.00;7.00;;;;;;;;4750514;29;46069;-93
2023/09/02 00:40:34;;;;;;;;;6.00;6.00;;;;;;;;4752238;29;45545;-94
2023/09/02 00:43:00;;;;;;;;;10.33;10.33;;;;;;;;4741542;29;45845;-94
2023/09/02 00:45:31;;;;;;;;;2.00;2.00;;;;;;;;4734916;29;45900;-94
2023/09/02 00:48:03;;;;;;;;;6.33;6.33;;;;;;;;4733467;30;45420;-94
2023/09/02 00:50:29;;;;;;;;;4.00;4.00;;;;;;;;4732872;29;47284;-93
2023/09/02 00:52:57;;;;;;;;;7.33;7.00;;;;;;;;4735368;29;45570;-94
2023/09/02 00:55:25;;;;;;;;;7.00;7.00;;;;;;;;4750311;29;45506;-93
2023/09/02 00:57:50;;;;;;;;;5.33;5.33;;;;;;;;4734007;29;45544;-94
2023/09/02 01:00:20;;;;;;;;;7.00;7.00;;;;;;;;4748469;29;46084;-94
2023/09/02 01:02:53;;;;;;;;;4.00;4.00;;;;;;;;4749655;29;45704;-94
2023/09/02 01:05:36;;;;;;;;;5.00;5.00;;;;;;;;4749041;29;45423;-94
2023/09/02 01:08:03;;;;;;;;;5.33;5.33;;;;;;;;4737474;29;45268;-94
2023/09/02 01:10:29;;;;;;;;;5.33;5.33;;;;;;;;4757844;29;45500;-93
2023/09/02 01:12:54;;;;;;;;;3.00;3.00;;;;;;;;4749400;29;45219;-93
2023/09/02 01:15:19;;;;;;;;;5.67;4.33;;;;;;;;4725879;29;45327;-93
2023/09/02 01:17:45;;;;;;;;;4.00;4.00;;;;;;;;4736032;29;45581;-94
2023/09/02 01:20:12;;;;;;;;;6.67;6.67;;;;;;;;4749850;29;46611;-94
2023/09/02 01:22:56;;;;;;;;;7.00;7.00;;;;;;;;4737091;29;45657;-93
2023/09/02 01:25:24;;;;;;;;;6.67;6.67;;;;;;;;4754024;29;45681;-94
2023/09/02 01:27:54;;;;;;;;;7.33;7.33;;;;;;;;4758210;29;45308;-94
2023/09/02 01:30:21;;;;;;;;;3.00;3.00;;;;;;;;4733652;29;48087;-94
2023/09/02 01:32:49;;;;;;;;;4.00;4.00;;;;;;;;4748898;29;45540;-93
2023/09/02 01:35:23;;;;;;;;;3.33;3.33;;;;;;;;4732215;30;45524;-94
2023/09/02 01:37:51;;;;;;;;;4.00;4.00;;;;;;;;4748792;29;45626;-94
2023/09/02 01:40:21;;;;;;;;;4.00;4.00;;;;;;;;4734569;29;46365;-93
2023/09/02 01:42:48;;;;;;;;;6.33;4.33;;;;;;;;4748399;29;45503;-93
2023/09/02 01:45:14;;;;;;;;;4.67;4.67;;;;;;;;4734207;29;45532;-94
2023/09/02 01:47:39;;;;;;;;;5.33;5.33;;;;;;;;4734112;29;45535;-93
2023/09/02 01:50:07;;;;;;;;;4.67;4.67;;;;;;;;4734843;29;46235;-94
2023/09/02 01:52:32;;;;;;;;;5.00;5.00;;;;;;;;4737065;29;45466;-94
2023/09/02 01:54:58;;;;;;;;;4.00;4.00;;;;;;;;4730546;29;45433;-93
2023/09/02 01:57:24;;;;;;;;;6.00;6.00;;;;;;;;4746388;29;45567;-94
2023/09/02 01:59:50;;;;;;;;;4.67;4.67;;;;;;;;4729146;29;47062;-94
2023/09/02 02:02:16;;;;;;;;;5.33;5.33;;;;;;;;4732244;29;45658;-94
2023/09/02 02:04:47;;;;;;;;;3.00;3.00;;;;;;;;4734338;29;45453;-94
2023/09/02 02:07:16;;;;;;;;;2.00;2.00;;;;;;;;4733646;29;45491;-93
2023/09/02 02:09:47;;;;;;;;;2.00;2.00;;;;;;;;4733144;29;46697;-94
2023/09/02 02:12:13;;;;;;;;;2.00;2.00;;;;;;;;4746686;29;45469;-94
2023/09/02 02:14:45;;;;;;;;;4.33;4.33;;;;;;;;4757788;29;45304;-94
2023/09/02 02:17:11;;;;;;;;;4.00;4.00;;;;;;;;4735066;30;45505;-94
2023/09/02 02:19:36;;;;;;;;;5.33;3.00;;;;;;;;4729598;30;46197;-94
2023/09/02 02:22:04;;;;;;;;;3.00;3.00;;;;;;;;4751399;29;45207;-94
2023/09/02 02:24:41;;;;;;;;;5.00;5.00;;;;;;;;4729835;30;45329;-94
2023/09/02 02:27:09;;;;;;;;;4.00;4.00;;;;;;;;4749583;29;45406;-94
2023/09/02 02:29:45;;;;;;;;;4.00;4.00;;;;;;;;4735974;30;47214;-94
2023/09/02 02:32:13;;;;;;;;;3.00;3.00;;;;;;;;4737009;29;45505;-95
2023/09/02 02:34:41;;;;;;;;;5.67;3.67;;;;;;;;4734343;29;45478;-94
2023/09/02 02:37:06;;;;;;;;;4.33;4.33;;;;;;;;4734469;29;45628;-94
2023/09/02 02:39:37;;;;;;;;;5.67;5.67;;;;;;;;4732393;29;46826;-94
2023/09/02 02:42:05;;;;;;;;;3.67;3.67;;;;;;;;4748534;29;45513;-95
2023/09/02 02:44:34;;;;;;;;;3.00;3.00;;;;;;;;4747126;29;45517;-94
2023/09/02 02:47:08;;;;;;;;;4.00;4.00;;;;;;;;4731280;29;45719;-94
2023/09/02 02:49:36;;;;;;;;;2.67;2.67;;;;;;;;4747340;29;45599;-94
2023/09/02 02:55:36;;;;;;;;;2.67;2.67;;;;;;;;4748421;29;45408;-94
2023/09/02 02:58:01;;;;;;;;;1.67;1.67;;;;;;;;4749670;29;45581;-93
2023/09/02 03:00:27;;;;;;;;;2.67;2.67;;;;;;;;4736128;29;47135;-94
2023/09/02 03:02:52;;;;;;;;;2.67;2.67;;;;;;;;4751662;29;45507;-94
2023/09/02 03:05:19;;;;;;;;;4.00;4.00;;;;;;;;4741585;29;45273;-94
2023/09/02 03:07:45;;;;;;;;;4.00;4.00;;;;;;;;4736233;29;45334;-94
2023/09/02 03:10:12;;;;;;;;;3.00;3.00;;;;;;;;4737831;29;47903;-94
2023/09/02 03:12:38;;;;;;;;;3.00;3.00;;;;;;;;4729059;30;45542;-94
2023/09/02 03:15:03;;;;;;;;;3.33;3.33;;;;;;;;4725773;30;45488;-94
2023/09/02 03:17:28;;;;;;;;;3.67;3.67;;;;;;;;4726391;30;45239;-94
2023/09/02 03:19:54;;;;;;;;;1.67;1.67;;;;;;;;4746162;29;46383;-94
2023/09/02 03:22:25;;;;;;;;;3.33;3.33;;;;;;;;4754590;29;45552;-94
2023/09/02 03:24:56;;;;;;;;;2.33;2.33;;;;;;;;4758322;29;45417;-94
2023/09/02 03:27:21;;;;;;;;;3.00;3.00;;;;;;;;4743305;29;45573;-94
2023/09/02 03:29:49;;;;;;;;;6.00;6.00;;;;;;;;4726033;30;47423;-93
2023/09/02 03:32:15;;;;;;;;;6.00;5.33;;;;;;;;4725758;30;45201;-93
2023/09/02 03:34:40;;;;;;;;;7.33;7.33;;;;;;;;4725986;30;45333;-93
2023/09/02 03:37:05;;;;;;;;;6.33;6.33;;;;;;;;4742203;30;45419;-93
2023/09/02 03:39:33;;;;;;;;;5.67;5.67;;;;;;;;4741489;29;45223;-94
2023/09/02 03:41:58;;;;;;;;;5.00;5.00;;;;;;;;4735747;29;45455;-94
2023/09/02 03:47:23;;;;;;;;;3.33;3.33;;;;;;;;4704145;30;45494;-95
2023/09/02 03:49:49;;;;;;;;;5.33;5.00;;;;;;;;4750738;29;47084;-93
2023/09/02 03:52:15;;;;;;;;;3.00;3.00;;;;;;;;4759392;29;45160;-93
2023/09/02 03:54:41;;;;;;;;;3.33;3.33;;;;;;;;4759446;29;45414;-94
2023/09/02 03:57:06;;;;;;;;;5.67;5.67;;;;;;;;4732317;30;45421;-93
2023/09/02 03:59:31;;;;;;;;;5.33;5.33;;;;;;;;4739688;29;46937;-94
2023/09/02 04:01:56;;;;;;;;;5.67;5.67;;;;;;;;4745892;29;45255;-93
2023/09/02 04:04:22;;;;;;;;;1.67;1.67;;;;;;;;4743402;29;45449;-93
2023/09/02 04:06:47;;;;;;;;;4.33;4.33;;;;;;;;4730309;30;45611;-93
2023/09/02 04:09:12;;;;;;;;;4.00;4.00;;;;;;;;4737846;29;47001;-93
2023/09/02 04:11:37;;;;;;;;;3.00;3.00;;;;;;;;4752104;29;45428;-93
2023/09/02 04:14:03;;;;;;;;;3.33;3.33;;;;;;;;4753304;29;45492;-93
2023/09/02 04:16:28;;;;;;;;;3.00;3.00;;;;;;;;4747999;29;45374;-93
2023/09/02 04:18:53;;;;;;;;;4.00;4.00;;;;;;;;4727565;30;46774;-93
2023/09/02 04:21:19;;;;;;;;;4.00;3.00;;;;;;;;4724844;30;45486;-93
2023/09/02 04:23:47;;;;;;;;;3.67;3.67;;;;;;;;4725242;30;45272;-93
2023/09/02 04:26:15;;;;;;;;;2.67;2.67;;;;;;;;4741541;30;45243;-93
2023/09/02 04:28:40;;;;;;;;;3.00;3.00;;;;;;;;4735008;29;47673;-93
2023/09/02 04:31:06;;;;;;;;;4.00;4.00;;;;;;;;4742356;29;45328;-92
2023/09/02 04:33:31;;;;;;;;;4.00;4.00;;;;;;;;4755383;29;45451;-93
2023/09/02 04:35:57;;;;;;;;;2.67;2.67;;;;;;;;4742396;29;45401;-93
2023/09/02 04:38:22;;;;;;;;;5.33;5.33;;;;;;;;4742621;29;47215;-93
2023/09/02 04:40:47;;;;;;;;;5.67;5.67;;;;;;;;4726760;30;45912;-93
2023/09/02 04:43:13;;;;;;;;;4.67;4.67;;;;;;;;4741084;30;45377;-92
2023/09/02 04:45:40;;;;;;;;;3.00;3.00;;;;;;;;4724794;30;45330;-93
2023/09/02 04:48:05;;;;;;;;;3.00;3.00;;;;;;;;4740721;30;45550;-93
2023/09/02 04:50:31;;;;;;;;;3.00;3.00;;;;;;;;4738713;29;45479;-93
2023/09/02 04:52:57;;;;;;;;;2.33;2.33;;;;;;;;4758542;29;45439;-93
2023/09/02 04:55:24;;;;;;;;;3.00;3.00;;;;;;;;4736217;29;45629;-93
2023/09/02 04:57:50;;;;;;;;;3.00;3.00;;;;;;;;4748524;29;46458;-93
2023/09/02 05:00:18;;;;;;;;;5.33;4.00;;;;;;;;4732863;29;46579;-95
2023/09/02 05:02:45;;;;;;;;;3.67;3.67;;;;;;;;4734607;29;45621;-93
2023/09/02 05:05:11;;;;;;;;;4.67;4.67;;;;;;;;4726801;29;45553;-94
2023/09/02 05:07:36;;;;;;;;;5.33;3.33;;;;;;;;4749140;29;45709;-94
2023/09/02 05:10:01;;;;;;;;;3.00;3.00;;;;;;;;4733088;29;45684;-93
2023/09/02 05:12:27;;;;;;;;;2.33;2.33;;;;;;;;4736358;29;45678;-94
2023/09/02 05:14:52;;;;;;;;;3.00;3.00;;;;;;;;4728616;29;45533;-94
2023/09/02 05:17:17;;;;;;;;;3.00;3.00;;;;;;;;4733629;29;46265;-93
2023/09/02 05:19:43;;;;;;;;;3.00;3.00;;;;;;;;4749004;29;45422;-93
2023/09/02 05:22:09;;;;;;;;;2.00;2.00;;;;;;;;4735328;29;45414;-93
2023/09/02 05:24:37;;;;;;;;;4.00;4.00;;;;;;;;4729922;29;45335;-94
2023/09/02 05:27:05;;;;;;;;;3.00;3.00;;;;;;;;4749302;29;46474;-93
2023/09/02 05:29:33;;;;;;;;;3.67;3.67;;;;;;;;4750328;29;45500;-93
2023/09/02 05:31:58;;;;;;;;;2.67;2.67;;;;;;;;4733211;29;45446;-93
2023/09/02 05:34:23;;;;;;;;;3.67;3.67;;;;;;;;4751947;29;45349;-93
2023/09/02 05:36:48;;;;;;;;;4.00;4.00;;;;;;;;4737565;29;47175;-93
2023/09/02 05:39:16;;;;;;;;;1.00;1.00;;;;;;;;4729353;30;45275;-94
2023/09/02 05:41:46;;;;;;;;;2.67;2.67;;;;;;;;4725154;30;45374;-94
2023/09/02 05:44:12;;;;;;;;;3.00;3.00;;;;;;;;4730395;29;46919;-94
2023/09/02 05:46:37;;;;;;;;;3.33;3.33;;;;;;;;4747743;29;45663;-94
2023/09/02 05:49:05;;;;;;;;;5.33;5.33;;;;;;;;4749564;29;45535;-94
2023/09/02 05:51:32;;;;;;;;;6.00;6.00;;;;;;;;4749128;29;45460;-94
2023/09/02 05:54:03;;;;;;;;;8.33;8.33;;;;;;;;4734837;29;45498;-95
2023/09/02 05:56:28;;;;;;;;;7.67;7.00;;;;;;;;4733937;29;48082;-95
2023/09/02 05:58:56;;;;;;;;;6.67;6.67;;;;;;;;4733335;29;45749;-94
2023/09/02 06:01:24;;;;;;;;;6.33;6.33;;;;;;;;4748719;29;45882;-94
2023/09/02 06:03:50;;;;;;;;;6.00;4.33;;;;;;;;4752624;29;45593;-94
2023/09/02 06:06:22;;;;;;;;;7.00;7.00;;;;;;;;4731390;29;46900;-95
2023/09/02 06:09:00;;;;;;;;;;;;;;;;;;;;;
2023/09/02 06:11:48;;;;;;;;;7.33;7.33;;;;;;;;4748596;29;68330;-94
2023/09/02 06:14:14;;;;;;;;;7.33;7.33;;;;;;;;4748518;29;45667;-94
2023/09/02 06:16:39;;;;;;;;;5.33;5.33;;;;;;;;4749317;29;45382;-93
2023/09/02 06:19:04;;;;;;;;;7.33;7.33;;;;;;;;4735447;29;45692;-94
2023/09/02 06:24:49;;;;;;;;;8.67;8.67;;;;;;;;4697462;29;45524;-95
2023/09/02 06:28:05;;;;;;;;;;;;;;;;;;;;;
2023/09/02 06:33:25;;;;;;;;;7.67;7.67;;;;;;;;4732800;29;45571;-94
2023/09/02 06:35:56;;;;;;;;;7.33;7.33;;;;;;;;4726779;30;45530;-94
2023/09/02 06:38:22;;;;;;;;;5.67;5.67;;;;;;;;4745116;29;46349;-94
2023/09/02 06:40:47;;;;;;;;;6.67;6.67;;;;;;;;4730749;30;45270;-94
2023/09/02 06:43:12;;;;;;;;;8.00;6.33;;;;;;;;4726710;30;45432;-94
2023/09/02 06:46:01;;;;;;;;;5.00;5.00;;;;;;;;4734574;29;45507;-94
2023/09/02 06:48:33;;;;;;;;;6.00;6.00;;;;;;;;4752917;29;47043;-94
2023/09/02 06:50:58;;;;;;;;;7.00;7.00;;;;;;;;4751972;29;45322;-94
2023/09/02 06:53:26;;;;;;;;;10.33;10.00;;;;;;;;4727554;29;45420;-94
2023/09/02 06:55:53;;;;;;;;;9.33;9.33;;;;;;;;4757084;29;45548;-94
2023/09/02 06:58:19;;;;;;;;;15.67;14.33;;;;;;;;4750073;29;45290;-94
2023/09/02 07:00:44;;;;;;;;;12.33;10.33;;;;;;;;4725273;30;45284;-94
2023/09/02 07:03:12;;;;;;;;;11.67;10.00;;;;;;;;4726563;30;45283;-94
2023/09/02 07:06:06;;;;;;;;;;;;;;;;;;;;;
2023/09/02 07:08:49;;;;;;;;;;;;;;;;;;;;;
2023/09/02 07:11:30;;;;;;;;;;;;;;;;;;;;;
2023/09/02 07:17:35;;;;;;;;;12.67;12.67;;;;;;;;4742195;29;45170;-94
2023/09/02 07:20:07;;;;;;;;;14.33;12.33;;;;;;;;4741158;30;46211;-94
2023/09/02 07:22:42;;;;;;;;;11.33;11.00;;;;;;;;4737752;29;45638;-94
2023/09/02 07:25:15;;;;;;;;;10.00;10.00;;;;;;;;4743414;29;45525;-94
2023/09/02 07:27:42;;;;;;;;;13.33;12.33;;;;;;;;4731371;29;45417;-94
2023/09/02 07:30:08;;;;;;;;;9.33;9.33;;;;;;;;4759070;29;46735;-94
2023/09/02 07:32:33;;;;;;;;;11.00;11.00;;;;;;;;4742024;29;45165;-94
2023/09/02 07:34:58;;;;;;;;;12.00;12.00;;;;;;;;4726121;30;45433;-93
2023/09/02 07:40:27;;;;;;;;;9.00;9.00;;;;;;;;4968332;24;46292;-96
2023/09/02 07:43:09;;;;;;;;;14.33;14.33;;;;;;;;4747993;29;45500;-96
2023/09/02 07:45:34;;;;;;;;;13.33;13.33;;;;;;;;4746788;29;45568;-96
2023/09/02 07:48:00;;;;;;;;;14.67;14.67;;;;;;;;4764617;29;45582;-96
2023/09/02 07:50:36;;;;;;;;;11.00;11.00;;;;;;;;4760532;29;46407;-96
2023/09/02 07:53:02;;;;;;;;;13.67;13.67;;;;;;;;4762371;29;46245;-94
2023/09/02 07:55:27;;;;;;;;;17.67;17.67;;;;;;;;4744572;29;45471;-91
2023/09/02 07:57:52;;;;;;;;;14.00;14.00;;;;;;;;4766975;29;45499;-93
2023/09/02 08:00:17;;;;;;;;;18.67;17.00;;;;;;;;4758940;29;46401;-93
2023/09/02 08:02:43;;;;;;;;;24.33;24.33;;;;;;;;4758939;29;45389;-93
2023/09/02 08:05:09;;;;;;;;;25.33;22.67;;;;;;;;4763814;29;45499;-92
2023/09/02 08:07:36;;;;;;;;;28.67;26.67;;;;;;;;4763371;29;45441;-93
2023/09/02 08:10:04;;;;;;;;;23.00;23.00;;;;;;;;4743314;29;47112;-94
2023/09/02 08:12:30;;;;;;;;;19.33;18.67;;;;;;;;4741419;29;46584;-95
2023/09/02 08:15:04;;;;;;;;;27.67;26.33;;;;;;;;4734140;29;45414;-92
2023/09/02 08:23:38;;;;;;;;;26.00;22.00;;;;;;;;4747727;29;45173;-95
2023/09/02 08:26:15;;;;;;;;;20.00;20.00;;;;;;;;4741896;29;45359;-95
2023/09/02 08:28:48;;;;;;;;;17.67;15.67;;;;;;;;4746308;29;45550;-95
2023/09/02 08:31:19;;;;;;;;;24.00;22.33;;;;;;;;4757287;29;45386;-94
2023/09/02 08:33:45;;;;;;;;;22.67;19.00;;;;;;;;4756076;29;45454;-92
2023/09/02 08:36:16;;;;;;;;;23.00;22.67;;;;;;;;4738531;29;45733;-96
2023/09/02 08:38:42;;;;;;;;;17.67;17.67;;;;;;;;4757268;29;45584;-94
2023/09/02 08:41:09;;;;;;;;;23.33;23.33;;;;;;;;4749278;29;47363;-96
2023/09/02 08:43:35;;;;;;;;;19.67;19.67;;;;;;;;4744565;29;45382;-96
2023/09/02 08:46:28;;;;;;;;;21.00;21.00;;;;;;;;4747797;29;45492;-96
2023/09/02 08:54:14;;;;;;;;;16.33;15.67;;;;;;;;4747774;29;45555;-94
2023/09/02 08:56:52;;;;;;;;;15.67;15.67;;;;;;;;4750807;29;45262;-96
2023/09/02 08:59:18;;;;;;;;;14.00;14.00;;;;;;;;4749021;24;45569;-95
2023/09/02 09:02:08;;;;;;;;;15.67;15.67;;;;;;;;4749357;29;46506;-96
2023/09/02 09:04:34;;;;;;;;;16.00;16.00;;;;;;;;4753186;29;45385;-94
2023/09/02 09:07:02;;;;;;;;;13.33;13.33;;;;;;;;4751827;29;45365;-94
2023/09/02 09:09:28;;;;;;;;;15.33;15.33;;;;;;;;4750480;29;46194;-94
2023/09/02 09:11:55;;;;;;;;;12.33;12.33;;;;;;;;4742216;29;46970;-94
2023/09/02 09:14:22;;;;;;;;;10.67;10.67;;;;;;;;4735506;29;45768;-96
2023/09/02 09:17:24;;;;;;;;;13.67;13.00;;;;;;;;4758689;29;45479;-95
2023/09/02 09:19:50;;;;;;;;;12.67;12.67;;;;;;;;4696085;30;45673;-96
2023/09/02 09:22:15;;;;;;;;;11.33;11.33;;;;;;;;4740921;29;47016;-81
2023/09/02 09:24:41;;;;;;;;;12.67;12.67;;;;;;;;4747430;29;45612;-80
2023/09/02 09:27:06;;;;;;;;;15.33;15.33;;;;;;;;4758583;29;45580;-81
2023/09/02 09:29:42;;;;;;;;;14.67;13.33;;;;;;;;4759703;29;45618;-86
2023/09/02 09:32:14;;;;;;;;;12.00;12.00;;;;;;;;4745432;29;48049;-96
2023/09/02 09:34:40;;;;;;;;;10.67;10.67;;;;;;;;4758905;29;45621;-96
2023/09/02 09:37:06;;;;;;;;;9.67;9.67;;;;;;;;4757554;29;46524;-93
2023/09/02 09:39:47;;;;;;;;;14.00;14.00;;;;;;;;4757463;29;45674;-94
2023/09/02 09:42:18;;;;;;;;;12.67;12.67;;;;;;;;4761311;29;45620;-94
2023/09/02 09:44:51;;;;;;;;;11.00;11.00;;;;;;;;4742205;29;45808;-94
2023/09/02 09:47:26;;;;;;;;;7.33;7.33;;;;;;;;4751759;29;45554;-95
2023/09/02 09:49:52;;;;;;;;;10.00;10.00;;;;;;;;4751736;29;45972;-96
2023/09/02 09:52:21;;;;;;;;;10.00;10.00;;;;;;;;4745850;29;45416;-96
2023/09/02 09:54:59;;;;;;;;;;;;;;;;;;;;;
2023/09/02 09:57:29;;;;;;;;;8.67;8.67;;;;;;;;4759267;29;67459;-96
2023/09/02 10:00:03;;;;;;;;;11.00;11.00;;;;;;;;4763821;29;45588;-96
2023/09/02 10:02:39;;;;;;;;;7.33;7.33;;;;;;;;4750269;29;48077;-96
2023/09/02 10:05:05;;;;;;;;;9.00;9.00;;;;;;;;4752160;29;45539;-93
2023/09/02 10:07:31;;;;;;;;;9.33;9.33;;;;;;;;4738599;29;45454;-96
2023/09/02 10:09:58;;;;;;;;;7.67;7.67;;;;;;;;4730878;30;45240;-96
2023/09/02 10:12:23;;;;;;;;;8.00;8.00;;;;;;;;4739542;30;45564;-96
2023/09/02 10:14:49;;;;;;;;;8.33;8.33;;;;;;;;4739286;30;45433;-95
2023/09/02 10:17:15;;;;;;;;;12.67;12.67;;;;;;;;4747651;29;45451;-95
2023/09/02 10:19:41;;;;;;;;;8.33;8.33;;;;;;;;4756242;29;46119;-95
2023/09/02 10:22:06;;;;;;;;;8.67;8.67;;;;;;;;4727573;30;47161;-95
2023/09/02 10:24:32;;;;;;;;;7.00;7.00;;;;;;;;4740699;29;45375;-95
2023/09/02 10:26:59;;;;;;;;;7.00;7.00;;;;;;;;4739913;30;45378;-95
2023/09/02 10:29:27;;;;;;;;;9.00;9.00;;;;;;;;4745455;29;45167;-95
2023/09/02 10:31:55;;;;;;;;;9.00;9.00;;;;;;;;4757149;29;45346;-95
2023/09/02 10:34:23;;;;;;;;;7.33;7.33;;;;;;;;4741283;29;45424;-96
2023/09/02 10:36:54;;;;;;;;;6.33;6.33;;;;;;;;4726132;30;45490;-95
2023/09/02 10:39:24;;;;;;;;;6.00;6.00;;;;;;;;4739574;30;45359;-95
2023/09/02 10:41:49;;;;;;;;;5.33;5.33;;;;;;;;4739156;30;46312;-95
2023/09/02 10:44:17;;;;;;;;;6.00;6.00;;;;;;;;4739502;30;45239;-95
2023/09/02 10:46:43;;;;;;;;;7.67;7.67;;;;;;;;4739173;30;45481;-95
2023/09/02 10:49:08;;;;;;;;;6.00;6.00;;;;;;;;4740250;29;46012;-95
2023/09/02 10:51:33;;;;;;;;;5.00;5.00;;;;;;;;4739141;30;45838;-95
2023/09/02 10:54:02;;;;;;;;;5.00;5.00;;;;;;;;4742143;29;45474;-96
2023/09/02 10:56:33;;;;;;;;;4.67;4.67;;;;;;;;4738929;29;45433;-95
2023/09/02 10:59:00;;;;;;;;;5.33;5.33;;;;;;;;4757742;29;45457;-95
2023/09/02 11:01:25;;;;;;;;;6.33;6.33;;;;;;;;4738633;30;46606;-96
2023/09/02 11:03:54;;;;;;;;;4.00;4.00;;;;;;;;4738598;29;45378;-96
2023/09/02 11:06:19;;;;;;;;;5.00;5.00;;;;;;;;4748805;29;45421;-96
2023/09/02 11:08:46;;;;;;;;;4.67;4.67;;;;;;;;4755202;29;45262;-95
2023/09/02 11:11:12;;;;;;;;;7.00;7.00;;;;;;;;4743122;29;46156;-96
2023/09/02 11:13:56;;;;;;;;;6.00;6.00;;;;;;;;4759259;29;45253;-95
2023/09/02 11:16:21;;;;;;;;;7.33;7.33;;;;;;;;4759769;29;45448;-96
2023/09/02 11:18:46;;;;;;;;;5.67;5.67;;;;;;;;4751551;29;45491;-95
2023/09/02 11:21:32;;;;;;;;;7.33;7.33;;;;;;;;4729897;29;47326;-96
2023/09/02 11:24:12;;;;;;;;;7.67;7.67;;;;;;;;4745483;29;45499;-95
2023/09/02 11:26:54;;;;;;;;;6.00;6.00;;;;;;;;4742134;30;45441;-96
2023/09/02 11:29:22;;;;;;;;;7.67;7.67;;;;;;;;4730264;29;45572;-96
2023/09/02 11:32:00;;;;;;;;;7.00;7.00;;;;;;;;4754074;29;45634;-95
2023/09/02 11:34:26;;;;;;;;;8.00;8.00;;;;;;;;4740593;30;45610;-95
2023/09/02 11:36:56;;;;;;;;;6.33;6.33;;;;;;;;4741856;30;45334;-96
2023/09/02 11:39:28;;;;;;;;;4.33;4.33;;;;;;;;4746093;29;45575;-96
2023/09/02 11:42:06;;;;;;;;;6.67;6.67;;;;;;;;4759493;29;45519;-96
2023/09/02 11:44:32;;;;;;;;;6.33;6.33;;;;;;;;4759224;29;45446;-96
2023/09/02 11:46:57;;;;;;;;;4.67;4.67;;;;;;;;4740130;30;45407;-96
2023/09/02 11:49:26;;;;;;;;;4.00;4.00;;;;;;;;4728866;29;45660;-96
2023/09/02 11:51:51;;;;;;;;;4.67;4.67;;;;;;;;4758599;29;45433;-96
2023/09/02 11:54:17;;;;;;;;;5.00;5.00;;;;;;;;4757329;29;45343;-95
2023/09/02 11:56:53;;;;;;;;;5.00;5.00;;;;;;;;4756845;29;45276;-96
2023/09/02 11:59:22;;;;;;;;;6.00;6.00;;;;;;;;4749744;30;45507;-96
2023/09/02 12:02:05;;;;;;;;;3.00;3.00;;;;;;;;4746672;29;46111;-95
2023/09/02 12:04:37;;;;;;;;;3.33;3.33;;;;;;;;4734284;29;45482;-96
2023/09/02 12:07:02;;;;;;;;;2.67;2.67;;;;;;;;4745114;29;45347;-95
2023/09/02 12:09:29;;;;;;;;;3.67;3.67;;;;;;;;4745312;29;45516;-96
2023/09/02 12:11:54;;;;;;;;;3.33;3.33;;;;;;;;4751449;29;45420;-96
2023/09/02 12:14:20;;;;;;;;;2.33;2.33;;;;;;;;4752539;29;45410;-95
2023/09/02 12:16:45;;;;;;;;;2.00;2.00;;;;;;;;4750345;29;45416;-96
2023/09/02 12:19:11;;;;;;;;;4.00;4.00;;;;;;;;4750458;29;45621;-95
2023/09/02 12:21:36;;;;;;;;;3.00;3.00;;;;;;;;4734520;30;46225;-96
2023/09/02 12:24:01;;;;;;;;;2.00;2.00;;;;;;;;4751759;29;45333;-96
2023/09/02 12:26:27;;;;;;;;;2.00;2.00;;;;;;;;4750553;29;45223;-96
2023/09/02 12:28:52;;;;;;;;;3.33;3.33;;;;;;;;4753341;29;45525;-96
2023/09/02 12:31:18;;;;;;;;;3.50;3.50;;;;;;;;4732767;29;47001;-95
2023/09/02 12:33:43;;;;;;;;;2.00;2.00;;;;;;;;4744871;29;45434;-96
2023/09/02 12:36:08;;;;;;;;;2.00;2.00;;;;;;;;4753437;29;45446;-96
2023/09/02 12:38:50;;;;;;;;;2.00;2.00;;;;;;;;4741187;30;45449;-96
2023/09/02 12:41:16;;;;;;;;;4.00;4.00;;;;;;;;4741257;30;46470;-96
2023/09/02 12:43:41;;;;;;;;;3.00;3.00;;;;;;;;4724760;30;45467;-95
2023/09/02 12:46:06;;;;;;;;;4.33;4.33;;;;;;;;4741056;30;45456;-96
2023/09/02 12:48:32;;;;;;;;;5.00;5.00;;;;;;;;4741087;30;45521;-96
2023/09/02 12:50:57;;;;;;;;;5.33;5.33;;;;;;;;4739990;29;45473;-96
2023/09/02 12:53:23;;;;;;;;;7.33;7.33;;;;;;;;4724589;30;45351;-96
2023/09/02 12:55:50;;;;;;;;;6.00;6.00;;;;;;;;4741059;30;45182;-96
2023/09/02 12:58:15;;;;;;;;;5.00;5.00;;;;;;;;4741011;29;45426;-96
2023/09/02 13:00:40;;;;;;;;;5.00;5.00;;;;;;;;4753851;29;45593;-95
2023/09/02 13:03:05;;;;;;;;;5.00;5.00;;;;;;;;4758509;29;45223;-96
2023/09/02 13:05:31;;;;;;;;;7.67;7.67;;;;;;;;4755047;29;45292;-95
2023/09/02 13:07:56;;;;;;;;;4.00;4.00;;;;;;;;4743834;29;45415;-95
2023/09/02 13:10:23;;;;;;;;;4.00;4.00;;;;;;;;4730755;30;47294;-96
2023/09/02 13:12:48;;;;;;;;;7.00;7.00;;;;;;;;4740644;29;45570;-96
2023/09/02 13:15:13;;;;;;;;;4.33;4.33;;;;;;;;4740469;30;45486;-96
2023/09/02 13:17:39;;;;;;;;;4.33;3.67;;;;;;;;4755080;29;45467;-96
2023/09/02 13:20:04;;;;;;;;;4.00;4.00;;;;;;;;4754524;29;45335;-96
2023/09/02 13:22:30;;;;;;;;;6.33;6.33;;;;;;;;4730906;30;45496;-95
2023/09/02 13:24:55;;;;;;;;;5.00;5.00;;;;;;;;4752450;29;45303;-95
2023/09/02 13:27:21;;;;;;;;;6.00;6.00;;;;;;;;4724654;30;45483;-96
2023/09/02 13:29:46;;;;;;;;;5.00;5.00;;;;;;;;4742105;29;46943;-96
2023/09/02 13:32:17;;;;;;;;;4.00;4.00;;;;;;;;4758117;29;45363;-96
2023/09/02 13:34:42;;;;;;;;;4.67;4.67;;;;;;;;4758074;29;45431;-96
2023/09/02 13:37:20;;;;;;;;;4.00;4.00;;;;;;;;4758174;29;45185;-96
2023/09/02 13:39:46;;;;;;;;;3.00;3.00;;;;;;;;4756532;29;46458;-96
2023/09/02 13:42:17;;;;;;;;;3.67;3.67;;;;;;;;4748131;29;45531;-96
2023/09/02 13:44:42;;;;;;;;;3.33;3.33;;;;;;;;4734963;29;45394;-96
2023/09/02 13:47:08;;;;;;;;;3.00;3.00;;;;;;;;4741875;29;45221;-96
2023/09/02 13:49:33;;;;;;;;;2.67;2.67;;;;;;;;4742705;29;46564;-96
2023/09/02 13:51:59;;;;;;;;;2.67;2.67;;;;;;;;4741043;30;45134;-96
2023/09/02 13:54:25;;;;;;;;;2.33;2.33;;;;;;;;4752093;30;45169;-96
2023/09/02 13:56:50;;;;;;;;;3.00;3.00;;;;;;;;4733662;29;45437;-95
2023/09/02 13:59:15;;;;;;;;;3.00;3.00;;;;;;;;4756450;29;46547;-96
2023/09/02 14:01:40;;;;;;;;;2.00;2.00;;;;;;;;4750381;29;45580;-96
2023/09/02 14:04:06;;;;;;;;;3.00;3.00;;;;;;;;4742185;30;45379;-96
2023/09/02 14:06:31;;;;;;;;;2.33;2.33;;;;;;;;4740008;30;45323;-96
2023/09/02 14:08:59;;;;;;;;;2.00;2.00;;;;;;;;4739473;29;45444;-96
2023/09/02 14:11:24;;;;;;;;;2.00;2.00;;;;;;;;4756037;29;45487;-96
2023/09/02 14:13:52;;;;;;;;;3.00;3.00;;;;;;;;4760524;29;45542;-95
2023/09/02 14:16:18;;;;;;;;;3.00;3.00;;;;;;;;4764339;29;45174;-95
2023/09/02 14:18:43;;;;;;;;;3.00;3.00;;;;;;;;4765359;29;28326;-96
2023/09/02 14:21:08;;;;;;;;;3.67;3.67;;;;;;;;4756498;29;28314;-96
2023/09/02 14:23:33;;;;;;;;;3.00;3.00;;;;;;;;4739976;30;45295;-96
2023/09/02 14:25:59;;;;;;;;;3.00;3.00;;;;;;;;4739868;30;45216;-96
2023/09/02 14:28:25;;;;;;;;;4.33;4.33;;;;;;;;4739674;30;46381;-95
2023/09/02 14:30:51;;;;;;;;;3.00;3.00;;;;;;;;4741205;30;45324;-96
2023/09/02 14:33:16;;;;;;;;;3.00;3.00;;;;;;;;4746848;30;45193;-95
2023/09/02 14:35:41;;;;;;;;;3.00;3.00;;;;;;;;4764012;29;45493;-96
2023/09/02 14:38:07;;;;;;;;;3.00;3.00;;;;;;;;4757402;29;45509;-96
2023/09/02 14:40:32;;;;;;;;;4.00;4.00;;;;;;;;4755773;29;45396;-96
2023/09/02 14:42:57;;;;;;;;;5.00;5.00;;;;;;;;4724665;30;45414;-96
2023/09/02 14:45:22;;;;;;;;;6.00;6.00;;;;;;;;4739343;30;45465;-96
2023/09/02 14:47:48;;;;;;;;;4.33;4.33;;;;;;;;4742239;30;45250;-95
2023/09/02 14:50:13;;;;;;;;;5.00;5.00;;;;;;;;4741875;29;45409;-96
2023/09/02 14:52:39;;;;;;;;;3.33;3.33;;;;;;;;4742777;30;45351;-96
2023/09/02 14:55:04;;;;;;;;;5.33;5.33;;;;;;;;4742480;29;45395;-96
2023/09/02 14:57:32;;;;;;;;;4.00;4.00;;;;;;;;4757967;29;46401;-95
2023/09/02 14:59:59;;;;;;;;;5.00;5.00;;;;;;;;4734296;29;45468;-95
2023/09/02 15:02:38;;;;;;;;;3.67;3.67;;;;;;;;4752956;29;45479;-96
2023/09/02 15:05:07;;;;;;;;;5.00;5.00;;;;;;;;4742682;30;45437;-95
2023/09/02 15:07:34;;;;;;;;;5.00;5.00;;;;;;;;4742197;30;45240;-95
2023/09/02 15:09:59;;;;;;;;;4.00;4.00;;;;;;;;4744092;29;45239;-96
2023/09/02 15:12:24;;;;;;;;;4.00;4.00;;;;;;;;4742704;29;45270;-95
2023/09/02 15:14:52;;;;;;;;;3.67;3.67;;;;;;;;4747537;29;45283;-95
2023/09/02 15:17:17;;;;;;;;;4.00;4.00;;;;;;;;4743313;29;46501;-95
2023/09/02 15:19:48;;;;;;;;;3.00;3.00;;;;;;;;4746909;29;45889;-95
2023/09/02 15:22:14;;;;;;;;;3.33;3.33;;;;;;;;4760071;29;45319;-96
2023/09/02 15:24:39;;;;;;;;;3.00;3.00;;;;;;;;4760191;29;45552;-95